sensor_id;sensor_type;location;lat;lon;timestamp;pressure;altitude;pressure_sealevel;temperature;humidity
43934;BME280;59081;42.706;23.306;2023-05-23T00:00:19;94991.06;;;12.05;100.00
43934;BME280;59081;42.706;23.306;2023-05-23T00:02:48;95019.19;;;11.91;100.00
43934;BME280;59081;42.706;23.306;2023-05-23T00:05:18;94892.72;;;10.77;100.00
43934;BME280;59081;42.706;23.306;2023-05-23T00:07:51;95104.44;;;12.33;100.00
43934;BME280;59081;42.706;23.306;2023-05-23T00:10:30;94910.03;;;11.12;100.00
43934;BME280;59081;42.706;23.306;2023-05-23T00:12:58;94927.44;;;11.22;100.00
43934;BME280;59081;42.706;23.306;2023-05-23T00:15:27;94941.81;;;11.38;100.00
43934;BME280;59081;42.706;23.306;2023-05-23T00:17:56;95117.53;;;12.63;100.00
43934;BME280;59081;42.706;23.306;2023-05-23T00:20:28;95037.59;;;12.16;100.00
43934;BME280;59081;42.706;23.306;2023-05-23T00:22:55;95043.31;;;12.22;100.00
43934;BME280;59081;42.706;23.306;2023-05-23T00:25:23;95035.03;;;12.22;100.00
43934;BME280;59081;42.706;23.306;2023-05-23T00:27:50;94893.31;;;11.28;100.00
43934;BME280;59081;42.706;23.306;2023-05-23T00:30:18;95109.53;;;12.65;100.00
43934;BME280;59081;42.706;23.306;2023-05-23T00:32:47;95106.94;;;12.62;100.00
43934;BME280;59081;42.706;23.306;2023-05-23T00:35:33;95115.22;;;12.62;100.00
43934;BME280;59081;42.706;23.306;2023-05-23T00:38:02;94906.72;;;11.17;100.00
43934;BME280;59081;42.706;23.306;2023-05-23T00:40:28;95121.31;;;12.57;100.00
43934;BME280;59081;42.706;23.306;2023-05-23T00:42:56;95038.19;;;12.11;100.00
43934;BME280;59081;42.706;23.306;2023-05-23T00:45:24;95114.13;;;12.59;100.00
43934;BME280;59081;42.706;23.306;2023-05-23T00:47:52;94985.66;;;11.80;100.00
43934;BME280;59081;42.706;23.306;2023-05-23T00:50:23;94933.88;;;11.40;100.00
43934;BME280;59081;42.706;23.306;2023-05-23T00:52:54;95116.94;;;12.68;100.00
43934;BME280;59081;42.706;23.306;2023-05-23T00:55:20;94955.59;;;11.60;100.00
43934;BME280;59081;42.706;23.306;2023-05-23T00:57:47;94893.47;;;11.25;100.00
43934;BME280;59081;42.706;23.306;2023-05-23T01:00:16;94957.34;;;11.67;100.00
43934;BME280;59081;42.706;23.306;2023-05-23T01:02:47;94914.69;;;11.37;100.00
43934;BME280;59081;42.706;23.306;2023-05-23T01:05:16;94931.72;;;11.44;100.00
43934;BME280;59081;42.706;23.306;2023-05-23T01:07:48;95039.78;;;12.21;100.00
43934;BME280;59081;42.706;23.306;2023-05-23T01:10:15;95022.88;;;11.97;100.00
43934;BME280;59081;42.706;23.306;2023-05-23T01:15:19;94905.94;;;11.16;100.00
43934;BME280;59081;42.706;23.306;2023-05-23T01:17:58;95050.94;;;12.17;100.00
43934;BME280;59081;42.706;23.306;2023-05-23T01:29:18;95118.97;;;12.46;100.00
43934;BME280;59081;42.706;23.306;2023-05-23T01:31:52;95108.81;;;12.43;100.00
43934;BME280;59081;42.706;23.306;2023-05-23T01:34:27;94996.22;;;11.60;100.00
43934;BME280;59081;42.706;23.306;2023-05-23T01:36:55;94892.56;;;10.93;100.00
43934;BME280;59081;42.706;23.306;2023-05-23T01:39:26;95029.25;;;11.85;100.00
43934;BME280;59081;42.706;23.306;2023-05-23T01:41:53;94949.38;;;11.25;100.00
43934;BME280;59081;42.706;23.306;2023-05-23T01:44:22;95041.72;;;11.90;100.00
43934;BME280;59081;42.706;23.306;2023-05-23T01:46:52;95106.75;;;12.34;100.00
43934;BME280;59081;42.706;23.306;2023-05-23T01:49:19;94933.84;;;11.19;100.00
43934;BME280;59081;42.706;23.306;2023-05-23T01:51:49;94873.06;;;10.66;100.00
43934;BME280;59081;42.706;23.306;2023-05-23T01:54:16;94910.03;;;10.90;100.00
43934;BME280;59081;42.706;23.306;2023-05-23T01:56:49;95052.63;;;11.93;100.00
43934;BME280;59081;42.706;23.306;2023-05-23T01:59:16;95097.63;;;12.25;100.00
43934;BME280;59081;42.706;23.306;2023-05-23T02:01:42;94893.34;;;10.94;100.00
43934;BME280;59081;42.706;23.306;2023-05-23T02:04:10;94982.34;;;11.50;100.00
43934;BME280;59081;42.706;23.306;2023-05-23T02:06:38;94895.66;;;10.95;100.00
43934;BME280;59081;42.706;23.306;2023-05-23T02:09:10;95034.25;;;11.77;100.00
43934;BME280;59081;42.706;23.306;2023-05-23T02:11:39;94859.19;;;10.57;100.00
43934;BME280;59081;42.706;23.306;2023-05-23T02:14:09;94888.31;;;10.79;100.00
43934;BME280;59081;42.706;23.306;2023-05-23T02:16:38;95053.75;;;11.83;100.00
43934;BME280;59081;42.706;23.306;2023-05-23T02:19:09;94934.22;;;11.08;100.00
43934;BME280;59081;42.706;23.306;2023-05-23T02:21:35;94940.69;;;11.14;100.00
43934;BME280;59081;42.706;23.306;2023-05-23T02:24:03;95093.25;;;12.14;100.00
43934;BME280;59081;42.706;23.306;2023-05-23T02:26:29;94871.50;;;10.65;100.00
43934;BME280;59081;42.706;23.306;2023-05-23T02:28:57;94979.44;;;11.32;100.00
43934;BME280;59081;42.706;23.306;2023-05-23T02:31:29;94925.09;;;10.98;100.00
43934;BME280;59081;42.706;23.306;2023-05-23T02:34:00;95079.63;;;11.98;100.00
43934;BME280;59081;42.706;23.306;2023-05-23T02:36:29;95095.69;;;12.12;100.00
43934;BME280;59081;42.706;23.306;2023-05-23T02:38:57;95102.91;;;12.10;100.00
43934;BME280;59081;42.706;23.306;2023-05-23T02:41:23;94880.00;;;10.70;100.00
43934;BME280;59081;42.706;23.306;2023-05-23T02:43:53;95089.88;;;12.10;100.00
43934;BME280;59081;42.706;23.306;2023-05-23T02:46:24;94995.94;;;11.45;100.00
43934;BME280;59081;42.706;23.306;2023-05-23T02:48:59;94871.13;;;10.75;100.00
43934;BME280;59081;42.706;23.306;2023-05-23T02:51:27;94969.97;;;11.33;100.00
43934;BME280;59081;42.706;23.306;2023-05-23T02:53:56;94983.19;;;11.38;100.00
43934;BME280;59081;42.706;23.306;2023-05-23T02:56:25;95040.84;;;11.80;100.00
43934;BME280;59081;42.706;23.306;2023-05-23T02:58:52;94974.50;;;11.27;100.00
43934;BME280;59081;42.706;23.306;2023-05-23T03:01:33;94919.34;;;10.93;100.00
43934;BME280;59081;42.706;23.306;2023-05-23T03:04:02;95053.59;;;11.77;100.00
43934;BME280;59081;42.706;23.306;2023-05-23T03:06:43;94911.53;;;10.91;100.00
43934;BME280;59081;42.706;23.306;2023-05-23T03:09:17;94920.28;;;10.90;100.00
43934;BME280;59081;42.706;23.306;2023-05-23T03:11:49;94887.53;;;10.44;100.00
43934;BME280;59081;42.706;23.306;2023-05-23T03:14:15;95003.88;;;11.21;100.00
43934;BME280;59081;42.706;23.306;2023-05-23T03:16:41;95018.06;;;11.32;100.00
43934;BME280;59081;42.706;23.306;2023-05-23T03:19:07;94893.56;;;10.52;100.00
43934;BME280;59081;42.706;23.306;2023-05-23T03:21:32;95088.22;;;11.78;100.00
43934;BME280;59081;42.706;23.306;2023-05-23T03:23:59;95052.13;;;11.38;100.00
43934;BME280;59081;42.706;23.306;2023-05-23T03:26:28;94866.81;;;10.15;100.00
43934;BME280;59081;42.706;23.306;2023-05-23T03:28:59;94894.38;;;10.27;100.00
43934;BME280;59081;42.706;23.306;2023-05-23T03:31:28;94998.16;;;11.03;100.00
43934;BME280;59081;42.706;23.306;2023-05-23T03:33:56;94918.69;;;10.41;100.00
43934;BME280;59081;42.706;23.306;2023-05-23T03:36:22;95015.03;;;11.05;100.00
43934;BME280;59081;42.706;23.306;2023-05-23T03:38:51;94945.47;;;10.54;100.00
43934;BME280;59081;42.706;23.306;2023-05-23T03:41:22;94934.88;;;10.52;100.00
43934;BME280;59081;42.706;23.306;2023-05-23T03:43:48;95062.91;;;11.45;100.00
43934;BME280;59081;42.706;23.306;2023-05-23T03:46:26;94954.91;;;10.65;100.00
43934;BME280;59081;42.706;23.306;2023-05-23T03:48:52;95121.97;;;11.82;100.00
43934;BME280;59081;42.706;23.306;2023-05-23T03:51:33;94918.47;;;10.49;100.00
43934;BME280;59081;42.706;23.306;2023-05-23T03:54:02;94930.03;;;10.56;100.00
43934;BME280;59081;42.706;23.306;2023-05-23T03:56:30;95011.94;;;11.03;100.00
43934;BME280;59081;42.706;23.306;2023-05-23T03:59:02;95000.69;;;11.10;100.00
43934;BME280;59081;42.706;23.306;2023-05-23T04:01:30;94922.00;;;10.49;100.00
43934;BME280;59081;42.706;23.306;2023-05-23T04:03:58;95128.38;;;11.92;100.00
43934;BME280;59081;42.706;23.306;2023-05-23T04:06:25;94945.00;;;10.68;100.00
43934;BME280;59081;42.706;23.306;2023-05-23T04:08:51;94917.38;;;10.46;100.00
43934;BME280;59081;42.706;23.306;2023-05-23T04:11:23;95104.28;;;11.58;100.00
43934;BME280;59081;42.706;23.306;2023-05-23T04:13:58;95014.38;;;11.01;100.00
43934;BME280;59081;42.706;23.306;2023-05-23T04:16:27;94978.94;;;10.52;100.00
43934;BME280;59081;42.706;23.306;2023-05-23T04:18:52;94895.69;;;10.23;100.00
43934;BME280;59081;42.706;23.306;2023-05-23T04:21:21;94900.88;;;10.21;100.00
43934;BME280;59081;42.706;23.306;2023-05-23T04:23:52;94872.78;;;10.00;100.00
43934;BME280;59081;42.706;23.306;2023-05-23T04:26:21;94957.78;;;10.49;100.00
43934;BME280;59081;42.706;23.306;2023-05-23T04:28:51;95069.06;;;11.02;100.00
43934;BME280;59081;42.706;23.306;2023-05-23T04:31:19;94920.88;;;10.08;100.00
43934;BME280;59081;42.706;23.306;2023-05-23T04:33:47;94986.88;;;10.63;100.00
43934;BME280;59081;42.706;23.306;2023-05-23T04:36:13;94895.47;;;10.17;100.00
43934;BME280;59081;42.706;23.306;2023-05-23T04:38:39;94976.59;;;10.76;100.00
43934;BME280;59081;42.706;23.306;2023-05-23T04:41:11;95033.66;;;11.01;100.00
43934;BME280;59081;42.706;23.306;2023-05-23T04:43:43;94977.91;;;10.84;100.00
43934;BME280;59081;42.706;23.306;2023-05-23T04:46:10;94998.06;;;10.94;100.00
43934;BME280;59081;42.706;23.306;2023-05-23T04:48:39;94965.06;;;10.68;100.00
43934;BME280;59081;42.706;23.306;2023-05-23T04:51:11;95018.69;;;11.02;100.00
43934;BME280;59081;42.706;23.306;2023-05-23T04:53:45;94989.94;;;10.77;100.00
43934;BME280;59081;42.706;23.306;2023-05-23T04:56:11;95101.19;;;11.43;100.00
43934;BME280;59081;42.706;23.306;2023-05-23T04:58:42;94939.84;;;10.32;100.00
43934;BME280;59081;42.706;23.306;2023-05-23T05:01:12;95015.94;;;10.76;100.00
43934;BME280;59081;42.706;23.306;2023-05-23T05:03:39;95096.81;;;11.33;100.00
43934;BME280;59081;42.706;23.306;2023-05-23T05:06:09;95091.19;;;11.37;100.00
43934;BME280;59081;42.706;23.306;2023-05-23T05:08:38;95016.94;;;10.82;100.00
43934;BME280;59081;42.706;23.306;2023-05-23T05:11:08;95153.13;;;11.70;100.00
43934;BME280;59081;42.706;23.306;2023-05-23T05:13:36;95158.31;;;11.68;100.00
43934;BME280;59081;42.706;23.306;2023-05-23T05:16:03;95154.16;;;11.76;100.00
43934;BME280;59081;42.706;23.306;2023-05-23T05:18:32;94923.75;;;10.18;100.00
43934;BME280;59081;42.706;23.306;2023-05-23T05:20:57;95083.03;;;11.21;100.00
43934;BME280;59081;42.706;23.306;2023-05-23T05:23:26;94975.94;;;10.59;100.00
43934;BME280;59081;42.706;23.306;2023-05-23T05:26:00;94947.91;;;10.39;100.00
43934;BME280;59081;42.706;23.306;2023-05-23T05:28:31;95157.97;;;11.66;100.00
43934;BME280;59081;42.706;23.306;2023-05-23T05:30:59;95162.41;;;11.64;100.00
43934;BME280;59081;42.706;23.306;2023-05-23T05:33:29;95162.41;;;11.64;100.00
43934;BME280;59081;42.706;23.306;2023-05-23T05:36:01;95163.19;;;11.77;100.00
43934;BME280;59081;42.706;23.306;2023-05-23T05:38:27;95145.28;;;11.81;100.00
43934;BME280;59081;42.706;23.306;2023-05-23T05:41:00;95110.72;;;11.42;100.00
43934;BME280;59081;42.706;23.306;2023-05-23T05:43:26;95158.97;;;11.85;100.00
43934;BME280;59081;42.706;23.306;2023-05-23T05:45:52;95040.38;;;11.25;100.00
43934;BME280;59081;42.706;23.306;2023-05-23T05:48:18;94991.16;;;10.89;100.00
43934;BME280;59081;42.706;23.306;2023-05-23T05:50:44;94961.19;;;10.66;100.00
43934;BME280;59081;42.706;23.306;2023-05-23T05:53:14;94945.03;;;10.30;100.00
43934;BME280;59081;42.706;23.306;2023-05-23T05:55:43;95091.38;;;11.55;100.00
43934;BME280;59081;42.706;23.306;2023-05-23T05:58:15;95124.97;;;11.88;100.00
43934;BME280;59081;42.706;23.306;2023-05-23T06:00:47;94977.34;;;11.02;100.00
43934;BME280;59081;42.706;23.306;2023-05-23T06:03:13;94932.50;;;10.89;100.00
43934;BME280;59081;42.706;23.306;2023-05-23T06:05:51;95175.72;;;12.47;100.00
43934;BME280;59081;42.706;23.306;2023-05-23T06:08:23;95067.13;;;11.84;100.00
43934;BME280;59081;42.706;23.306;2023-05-23T06:10:52;95022.00;;;11.66;100.00
43934;BME280;59081;42.706;23.306;2023-05-23T06:13:23;94994.16;;;11.51;100.00
43934;BME280;59081;42.706;23.306;2023-05-23T06:15:49;95117.72;;;12.47;100.00
43934;BME280;59081;42.706;23.306;2023-05-23T06:18:16;95037.78;;;12.00;100.00
43934;BME280;59081;42.706;23.306;2023-05-23T06:20:59;95091.91;;;12.41;100.00
43934;BME280;59081;42.706;23.306;2023-05-23T06:23:28;95035.22;;;12.27;100.00
43934;BME280;59081;42.706;23.306;2023-05-23T06:25:58;95165.16;;;13.20;100.00
43934;BME280;59081;42.706;23.306;2023-05-23T06:28:27;95081.53;;;12.76;100.00
43934;BME280;59081;42.706;23.306;2023-05-23T06:30:58;95061.94;;;12.92;100.00
43934;BME280;59081;42.706;23.306;2023-05-23T06:33:35;94964.88;;;12.50;99.59
43934;BME280;59081;42.706;23.306;2023-05-23T06:36:06;94953.94;;;12.37;98.15
43934;BME280;59081;42.706;23.306;2023-05-23T06:38:31;95166.91;;;13.85;98.45
43934;BME280;59081;42.706;23.306;2023-05-23T06:41:10;95162.00;;;13.98;96.54
43934;BME280;59081;42.706;23.306;2023-05-23T06:43:41;95123.31;;;13.49;98.09
43934;BME280;59081;42.706;23.306;2023-05-23T06:46:12;94961.78;;;12.88;97.19
43934;BME280;59081;42.706;23.306;2023-05-23T06:48:38;95010.28;;;13.29;93.00
43934;BME280;59081;42.706;23.306;2023-05-23T06:51:07;95160.94;;;14.59;92.23
43934;BME280;59081;42.706;23.306;2023-05-23T06:53:35;95172.81;;;14.69;92.17
43934;BME280;59081;42.706;23.306;2023-05-23T06:56:04;94932.38;;;13.40;90.80
43934;BME280;59081;42.706;23.306;2023-05-23T06:58:40;95030.41;;;14.30;89.09
43934;BME280;59081;42.706;23.306;2023-05-23T07:01:06;95162.38;;;15.15;90.35
43934;BME280;59081;42.706;23.306;2023-05-23T07:03:32;95101.19;;;15.10;89.79
43934;BME280;59081;42.706;23.306;2023-05-23T07:05:58;95003.81;;;14.75;88.08
43934;BME280;59081;42.706;23.306;2023-05-23T07:08:26;95108.44;;;15.58;87.41
43934;BME280;59081;42.706;23.306;2023-05-23T07:10:52;95106.94;;;15.72;86.67
43934;BME280;59081;42.706;23.306;2023-05-23T07:13:25;94930.50;;;14.76;84.50
43934;BME280;59081;42.706;23.306;2023-05-23T07:15:51;95099.91;;;15.86;83.66
43934;BME280;59081;42.706;23.306;2023-05-23T07:18:17;94998.44;;;15.28;84.56
43934;BME280;59081;42.706;23.306;2023-05-23T07:20:43;95132.75;;;16.11;85.16
43934;BME280;59081;42.706;23.306;2023-05-23T07:23:08;95084.78;;;15.87;83.29
43934;BME280;59081;42.706;23.306;2023-05-23T07:25:34;94913.91;;;14.90;83.56
43934;BME280;59081;42.706;23.306;2023-05-23T07:28:00;95024.31;;;15.82;83.43
43934;BME280;59081;42.706;23.306;2023-05-23T07:30:26;95043.19;;;16.16;83.33
43934;BME280;59081;42.706;23.306;2023-05-23T07:32:54;94959.50;;;15.85;81.22
43934;BME280;59081;42.706;23.306;2023-05-23T07:35:20;95027.44;;;16.13;81.69
43934;BME280;59081;42.706;23.306;2023-05-23T07:37:53;94956.59;;;15.79;81.81
43934;BME280;59081;42.706;23.306;2023-05-23T07:40:22;95078.91;;;16.77;80.93
43934;BME280;59081;42.706;23.306;2023-05-23T07:42:51;95075.06;;;17.03;80.01
43934;BME280;59081;42.706;23.306;2023-05-23T07:45:18;95086.56;;;17.11;78.58
43934;BME280;59081;42.706;23.306;2023-05-23T07:47:44;95010.13;;;16.62;78.46
43934;BME280;59081;42.706;23.306;2023-05-23T07:50:12;94961.94;;;16.21;80.26
43934;BME280;59081;42.706;23.306;2023-05-23T07:52:38;95020.41;;;16.56;80.01
43934;BME280;59081;42.706;23.306;2023-05-23T07:55:04;95100.97;;;17.10;80.13
43934;BME280;59081;42.706;23.306;2023-05-23T07:57:30;94918.03;;;15.96;79.32
43934;BME280;59081;42.706;23.306;2023-05-23T07:59:56;94921.31;;;16.24;77.03
43934;BME280;59081;42.706;23.306;2023-05-23T08:02:21;94987.69;;;16.81;78.16
43934;BME280;59081;42.706;23.306;2023-05-23T08:04:47;95090.03;;;16.91;78.85
43934;BME280;59081;42.706;23.306;2023-05-23T08:07:12;94943.31;;;16.13;79.71
43934;BME280;59081;42.706;23.306;2023-05-23T08:09:39;94983.69;;;16.67;79.18
43934;BME280;59081;42.706;23.306;2023-05-23T08:12:08;94935.53;;;16.61;77.86
43934;BME280;59081;42.706;23.306;2023-05-23T08:14:33;95033.91;;;17.63;76.27
43934;BME280;59081;42.706;23.306;2023-05-23T08:16:59;94976.38;;;17.39;74.72
43934;BME280;59081;42.706;23.306;2023-05-23T08:19:25;94970.63;;;17.63;74.54
43934;BME280;59081;42.706;23.306;2023-05-23T08:21:51;95035.22;;;18.08;75.14
43934;BME280;59081;42.706;23.306;2023-05-23T08:24:22;94936.16;;;17.40;74.18
43934;BME280;59081;42.706;23.306;2023-05-23T08:26:49;95078.09;;;18.57;74.03
43934;BME280;59081;42.706;23.306;2023-05-23T08:29:17;94938.09;;;17.55;73.99
43934;BME280;59081;42.706;23.306;2023-05-23T08:31:46;95039.25;;;18.53;72.77
43934;BME280;59081;42.706;23.306;2023-05-23T08:34:11;95024.88;;;18.34;74.30
43934;BME280;59081;42.706;23.306;2023-05-23T08:36:39;94970.75;;;17.95;72.73
43934;BME280;59081;42.706;23.306;2023-05-23T08:39:04;95041.28;;;18.53;73.30
43934;BME280;59081;42.706;23.306;2023-05-23T08:41:30;94924.06;;;17.90;73.30
43934;BME280;59081;42.706;23.306;2023-05-23T08:43:58;94928.72;;;18.24;71.37
43934;BME280;59081;42.706;23.306;2023-05-23T08:46:25;94924.75;;;18.62;70.64
43934;BME280;59081;42.706;23.306;2023-05-23T08:48:52;94939.19;;;18.98;68.89
43934;BME280;59081;42.706;23.306;2023-05-23T08:51:24;95085.84;;;20.10;67.94
43934;BME280;59081;42.706;23.306;2023-05-23T08:53:50;95009.75;;;19.41;66.01
43934;BME280;59081;42.706;23.306;2023-05-23T08:56:18;95005.66;;;19.73;65.78
43934;BME280;59081;42.706;23.306;2023-05-23T08:58:44;95005.59;;;19.62;65.87
43934;BME280;59081;42.706;23.306;2023-05-23T09:01:12;94926.97;;;19.38;67.66
43934;BME280;59081;42.706;23.306;2023-05-23T09:03:39;94974.44;;;19.92;65.59
43934;BME280;59081;42.706;23.306;2023-05-23T09:06:09;94966.09;;;20.03;65.98
43934;BME280;59081;42.706;23.306;2023-05-23T09:08:35;94916.00;;;19.88;65.10
43934;BME280;59081;42.706;23.306;2023-05-23T09:11:02;95062.41;;;20.83;62.75
43934;BME280;59081;42.706;23.306;2023-05-23T09:13:32;95042.06;;;20.72;60.80
43934;BME280;59081;42.706;23.306;2023-05-23T09:18:32;95021.69;;;20.71;58.53
43934;BME280;59081;42.706;23.306;2023-05-23T09:20:58;95042.31;;;20.85;56.08
43934;BME280;59081;42.706;23.306;2023-05-23T09:23:24;94894.94;;;20.09;55.44
43934;BME280;59081;42.706;23.306;2023-05-23T09:25:49;94897.03;;;20.42;56.02
43934;BME280;59081;42.706;23.306;2023-05-23T09:28:15;94967.00;;;20.76;53.15
43934;BME280;59081;42.706;23.306;2023-05-23T09:30:40;94996.00;;;21.06;55.57
43934;BME280;59081;42.706;23.306;2023-05-23T09:33:09;95029.84;;;21.36;52.00
43934;BME280;59081;42.706;23.306;2023-05-23T09:35:42;94987.09;;;21.08;51.55
43934;BME280;59081;42.706;23.306;2023-05-23T09:38:08;94871.59;;;20.52;50.99
43934;BME280;59081;42.706;23.306;2023-05-23T09:40:35;94974.09;;;20.99;49.10
43934;BME280;59081;42.706;23.306;2023-05-23T09:43:04;94921.41;;;20.98;51.14
43934;BME280;59081;42.706;23.306;2023-05-23T09:45:32;94876.94;;;20.49;48.23
43934;BME280;59081;42.706;23.306;2023-05-23T09:47:58;94863.19;;;20.18;49.96
43934;BME280;59081;42.706;23.306;2023-05-23T09:50:30;94976.81;;;21.55;49.41
43934;BME280;59081;42.706;23.306;2023-05-23T09:52:56;94909.41;;;21.25;47.81
43934;BME280;59081;42.706;23.306;2023-05-23T09:55:22;94871.63;;;20.40;49.06
43934;BME280;59081;42.706;23.306;2023-05-23T09:57:52;94865.75;;;20.55;49.78
43934;BME280;59081;42.706;23.306;2023-05-23T10:00:30;94862.94;;;20.77;48.65
43934;BME280;59081;42.706;23.306;2023-05-23T10:03:12;94880.59;;;21.41;45.86
43934;BME280;59081;42.706;23.306;2023-05-23T10:05:49;95029.00;;;22.44;44.41
43934;BME280;59081;42.706;23.306;2023-05-23T10:08:24;94986.84;;;22.03;45.20
43934;BME280;59081;42.706;23.306;2023-05-23T10:13:40;94985.44;;;22.32;42.90
43934;BME280;59081;42.706;23.306;2023-05-23T10:18:47;94856.41;;;21.33;41.26
43934;BME280;59081;42.706;23.306;2023-05-23T10:21:18;94847.84;;;21.66;40.94
43934;BME280;59081;42.706;23.306;2023-05-23T10:23:49;94925.66;;;22.42;39.77
43934;BME280;59081;42.706;23.306;2023-05-23T10:26:16;94949.31;;;22.88;39.17
43934;BME280;59081;42.706;23.306;2023-05-23T10:28:42;94951.13;;;23.15;37.70
43934;BME280;59081;42.706;23.306;2023-05-23T10:31:12;94880.56;;;22.35;38.49
43934;BME280;59081;42.706;23.306;2023-05-23T10:33:42;94899.34;;;22.81;38.77
43934;BME280;59081;42.706;23.306;2023-05-23T10:36:18;94848.47;;;22.30;38.13
43934;BME280;59081;42.706;23.306;2023-05-23T10:39:07;95012.41;;;23.41;39.73
43934;BME280;59081;42.706;23.306;2023-05-23T10:41:58;94995.69;;;23.79;36.94
43934;BME280;59081;42.706;23.306;2023-05-23T10:44:28;94995.44;;;24.01;37.29
43934;BME280;59081;42.706;23.306;2023-05-23T10:46:59;94884.72;;;23.61;35.79
43934;BME280;59081;42.706;23.306;2023-05-23T10:49:45;94946.06;;;23.81;35.54
43934;BME280;59081;42.706;23.306;2023-05-23T10:52:18;94889.81;;;23.38;36.56
43934;BME280;59081;42.706;23.306;2023-05-23T10:54:53;94831.88;;;22.86;36.55
43934;BME280;59081;42.706;23.306;2023-05-23T10:57:23;94911.63;;;23.94;36.70
43934;BME280;59081;42.706;23.306;2023-05-23T10:59:52;94846.47;;;23.09;37.19
43934;BME280;59081;42.706;23.306;2023-05-23T11:02:25;94892.88;;;23.16;36.88
43934;BME280;59081;42.706;23.306;2023-05-23T11:05:19;94997.50;;;23.76;37.00
43934;BME280;59081;42.706;23.306;2023-05-23T11:08:05;94786.34;;;22.45;35.63
43934;BME280;59081;42.706;23.306;2023-05-23T11:10:32;94879.41;;;22.84;36.44
43934;BME280;59081;42.706;23.306;2023-05-23T11:13:05;94820.50;;;22.49;36.43
43934;BME280;59081;42.706;23.306;2023-05-23T11:15:41;94947.19;;;23.24;36.68
43934;BME280;59081;42.706;23.306;2023-05-23T11:18:07;94980.88;;;23.30;36.19
43934;BME280;59081;42.706;23.306;2023-05-23T11:20:33;94829.28;;;22.34;36.63
43934;BME280;59081;42.706;23.306;2023-05-23T11:23:06;94980.50;;;23.69;37.02
43934;BME280;59081;42.706;23.306;2023-05-23T11:25:49;94802.22;;;22.91;36.42
43934;BME280;59081;42.706;23.306;2023-05-23T11:28:15;94888.53;;;24.01;35.48
43934;BME280;59081;42.706;23.306;2023-05-23T11:30:41;94825.72;;;23.55;34.69
43934;BME280;59081;42.706;23.306;2023-05-23T11:33:09;94968.84;;;24.58;34.91
43934;BME280;59081;42.706;23.306;2023-05-23T11:35:42;94877.41;;;23.90;34.72
43934;BME280;59081;42.706;23.306;2023-05-23T11:38:08;94916.38;;;24.23;35.15
43934;BME280;59081;42.706;23.306;2023-05-23T11:40:39;94942.53;;;24.18;35.97
43934;BME280;59081;42.706;23.306;2023-05-23T11:43:09;94957.88;;;23.99;34.55
43934;BME280;59081;42.706;23.306;2023-05-23T11:45:36;94954.06;;;23.96;34.59
43934;BME280;59081;42.706;23.306;2023-05-23T11:50:45;94908.16;;;24.07;34.47
43934;BME280;59081;42.706;23.306;2023-05-23T11:53:12;94909.78;;;24.53;34.67
43934;BME280;59081;42.706;23.306;2023-05-23T11:55:47;94856.16;;;24.45;33.95
43934;BME280;59081;42.706;23.306;2023-05-23T11:58:13;94820.53;;;24.48;34.00
43934;BME280;59081;42.706;23.306;2023-05-23T12:00:45;94818.50;;;24.48;33.93
43934;BME280;59081;42.706;23.306;2023-05-23T12:03:10;94932.00;;;25.99;32.79
43934;BME280;59081;42.706;23.306;2023-05-23T12:05:36;94895.50;;;26.15;31.93
43934;BME280;59081;42.706;23.306;2023-05-23T12:08:02;94889.69;;;26.33;31.18
43934;BME280;59081;42.706;23.306;2023-05-23T12:10:27;94833.25;;;26.54;30.34
43934;BME280;59081;42.706;23.306;2023-05-23T12:12:53;94902.28;;;26.66;31.24
43934;BME280;59081;42.706;23.306;2023-05-23T12:15:24;94926.50;;;26.41;31.37
43934;BME280;59081;42.706;23.306;2023-05-23T12:17:54;94743.13;;;24.54;32.12
43934;BME280;59081;42.706;23.306;2023-05-23T12:20:20;94807.91;;;24.68;32.33
43934;BME280;59081;42.706;23.306;2023-05-23T12:22:49;94772.84;;;23.73;32.76
43934;BME280;59081;42.706;23.306;2023-05-23T12:25:16;94882.41;;;24.98;32.74
43934;BME280;59081;42.706;23.306;2023-05-23T12:27:42;94816.19;;;24.34;31.81
43934;BME280;59081;42.706;23.306;2023-05-23T12:30:10;94886.56;;;25.24;32.13
43934;BME280;59081;42.706;23.306;2023-05-23T12:32:39;94914.97;;;25.92;31.46
43934;BME280;59081;42.706;23.306;2023-05-23T12:35:05;94763.25;;;25.51;31.03
43934;BME280;59081;42.706;23.306;2023-05-23T12:37:31;94816.44;;;25.81;30.15
43934;BME280;59081;42.706;23.306;2023-05-23T12:39:57;94873.63;;;26.28;30.75
43934;BME280;59081;42.706;23.306;2023-05-23T12:42:22;94838.69;;;25.84;29.88
43934;BME280;59081;42.706;23.306;2023-05-23T12:44:52;94863.88;;;25.95;29.54
43934;BME280;59081;42.706;23.306;2023-05-23T12:47:18;94815.97;;;26.24;28.82
43934;BME280;59081;42.706;23.306;2023-05-23T12:49:43;94810.56;;;25.31;28.90
43934;BME280;59081;42.706;23.306;2023-05-23T12:52:10;94850.28;;;26.28;28.67
43934;BME280;59081;42.706;23.306;2023-05-23T12:54:36;94795.41;;;25.82;28.27
43934;BME280;59081;42.706;23.306;2023-05-23T12:57:01;94845.09;;;26.74;27.39
43934;BME280;59081;42.706;23.306;2023-05-23T12:59:27;94799.06;;;25.43;28.51
43934;BME280;59081;42.706;23.306;2023-05-23T13:01:52;94882.56;;;26.53;28.70
43934;BME280;59081;42.706;23.306;2023-05-23T13:04:18;94833.03;;;26.52;27.43
43934;BME280;59081;42.706;23.306;2023-05-23T13:06:43;94839.56;;;26.68;27.10
43934;BME280;59081;42.706;23.306;2023-05-23T13:09:09;94828.44;;;27.12;26.44
43934;BME280;59081;42.706;23.306;2023-05-23T13:11:35;94824.03;;;27.03;25.28
43934;BME280;59081;42.706;23.306;2023-05-23T13:14:02;94859.03;;;27.21;26.11
43934;BME280;59081;42.706;23.306;2023-05-23T13:16:27;94881.59;;;27.42;25.62